createdAt,value
2017-05-26T19:24:40.842Z,23.42
2017-05-26T19:25:41.462Z,23.31
2017-05-26T19:26:41.148Z,23.23
2017-05-26T19:27:41.131Z,23.15
2017-05-26T19:28:41.451Z,23.12
2017-05-26T19:29:41.441Z,23.15
2017-05-26T19:30:41.118Z,23.08
2017-05-26T19:31:41.118Z,23.12
2017-05-26T19:32:41.109Z,23.12
2017-05-26T19:33:41.166Z,22.97
2017-05-26T19:34:41.096Z,22.96
2017-05-26T19:35:40.771Z,22.87
2017-05-26T19:36:41.080Z,22.89
2017-05-26T19:37:41.158Z,22.71
2017-05-26T19:38:41.384Z,22.72
2017-05-26T19:39:41.382Z,22.62
2017-05-26T19:40:41.055Z,22.64
2017-05-26T19:41:41.105Z,22.54
2017-05-26T19:42:41.051Z,22.52
2017-05-26T19:43:41.050Z,22.47
2017-05-26T19:44:41.360Z,22.46
2017-05-26T19:45:41.350Z,22.38
2017-05-26T19:46:41.341Z,22.32
2017-05-26T19:47:41.335Z,22.32
2017-05-26T19:48:40.902Z,22.31
2017-05-26T19:49:40.691Z,22.32
2017-05-26T19:50:40.683Z,22.22
2017-05-26T19:51:41.046Z,22.23
2017-05-26T19:52:41.328Z,22.14
2017-05-26T19:53:41.313Z,22.19
2017-05-26T19:54:40.976Z,22.22
2017-05-26T19:55:40.966Z,22.06
2017-05-26T19:56:41.290Z,22.06
2017-05-26T19:57:41.276Z,22.06
2017-05-26T19:58:41.008Z,21.99
2017-05-26T19:59:40.940Z,21.95
2017-05-26T20:00:40.942Z,21.91
2017-05-26T20:01:40.984Z,21.91
2017-05-26T20:02:41.250Z,21.85
2017-05-26T20:03:41.236Z,21.81
2017-05-26T20:04:41.240Z,21.74
2017-05-26T20:05:40.905Z,21.74
2017-05-26T20:06:58.960Z,21.74
2017-05-26T20:07:41.206Z,21.72
2017-05-26T20:08:40.891Z,21.66
2017-05-26T20:09:40.566Z,21.6
2017-05-26T20:10:40.874Z,21.6
2017-05-26T20:11:41.185Z,21.56
2017-05-26T20:12:40.547Z,21.53
2017-05-26T20:13:40.852Z,21.51
2017-05-26T20:14:40.843Z,21.54
2017-05-26T20:15:40.838Z,21.41
2017-05-26T20:16:40.834Z,21.39
2017-05-26T20:17:40.882Z,21.32
2017-05-26T20:18:40.821Z,21.32
2017-05-26T20:19:40.504Z,21.35
2017-05-26T20:20:40.819Z,21.27
2017-05-26T20:21:40.490Z,21.23
2017-05-26T20:22:40.837Z,21.24
2017-05-26T20:23:40.792Z,21.23
2017-05-26T20:24:40.782Z,21.08
2017-05-26T20:25:40.457Z,21.09
2017-05-26T20:26:41.079Z,21.13
2017-05-26T20:27:41.070Z,21.05
2017-05-26T20:28:40.438Z,21.11
2017-05-26T20:29:41.070Z,21.01
2017-05-26T20:30:41.051Z,21.04
2017-05-26T20:31:40.730Z,20.98
2017-05-26T20:32:40.464Z,20.9
2017-05-26T20:33:40.715Z,20.95
2017-05-26T20:34:40.712Z,20.81
2017-05-26T20:35:41.022Z,20.86
2017-05-26T20:36:40.698Z,20.9
2017-05-26T20:37:40.378Z,20.83
2017-05-26T20:38:40.677Z,20.79
2017-05-26T20:39:40.673Z,20.8
2017-05-26T20:40:40.977Z,20.8
2017-05-26T20:41:40.976Z,20.65
2017-05-26T20:42:40.701Z,20.72
2017-05-26T20:43:40.648Z,20.65
2017-05-26T20:44:40.955Z,20.66
2017-05-26T20:45:40.956Z,20.68
2017-05-26T20:46:40.626Z,20.54
2017-05-26T20:47:40.930Z,20.61
2017-05-26T20:48:40.956Z,20.49
2017-05-26T20:49:40.925Z,20.5
2017-05-26T20:50:40.908Z,20.46
2017-05-26T20:51:40.902Z,20.51
2017-05-26T20:52:40.582Z,20.42
2017-05-26T20:53:40.902Z,20.35
2017-05-26T20:54:40.883Z,20.46
2017-05-26T20:55:40.555Z,20.38
2017-05-26T20:56:40.547Z,20.35
2017-05-26T20:57:40.870Z,20.38
2017-05-26T20:58:40.538Z,20.41
2017-05-26T20:59:40.838Z,20.39
2017-05-26T21:00:40.206Z,20.3
2017-05-26T21:01:40.821Z,20.3
2017-05-26T21:02:40.821Z,20.3
2017-05-26T21:03:40.806Z,20.25
2017-05-26T21:04:40.491Z,20.28
2017-05-26T21:05:40.479Z,20.28
2017-05-26T21:06:40.162Z,20.25
2017-05-26T21:07:40.794Z,20.25
2017-05-26T21:08:40.142Z,20.25
2017-05-26T21:09:40.152Z,20.24
2017-05-26T21:10:40.440Z,20.24
2017-05-26T21:11:40.118Z,20.23
2017-05-26T21:12:40.429Z,20.23
2017-05-26T21:13:40.478Z,20.2
2017-05-26T21:14:40.100Z,20.16
2017-05-26T21:15:40.720Z,20.15
2017-05-26T21:16:40.080Z,20.13
2017-05-26T21:17:40.394Z,20.15
2017-05-26T21:18:40.060Z,20.13
2017-05-26T21:19:40.059Z,20.08
2017-05-26T21:20:40.368Z,20.08
2017-05-26T21:21:40.666Z,20.03
2017-05-26T21:22:40.342Z,20.03
2017-05-26T21:23:40.337Z,20.06
2017-05-26T21:24:40.328Z,19.98
2017-05-26T21:25:40.636Z,19.98
2017-05-26T21:26:40.640Z,20.02
2017-05-26T21:27:40.018Z,19.94
2017-05-26T21:28:40.312Z,19.91
2017-05-26T21:29:40.359Z,19.95
2017-05-26T21:30:39.981Z,19.98
2017-05-26T21:31:40.276Z,19.87
2017-05-26T21:32:40.269Z,19.9
2017-05-26T21:33:40.340Z,19.79
2017-05-26T21:34:40.248Z,19.76
2017-05-26T21:35:39.938Z,19.76
2017-05-26T21:36:40.236Z,19.83
2017-05-26T21:37:40.243Z,19.76
2017-05-26T21:38:39.963Z,19.78
2017-05-26T21:39:39.897Z,19.75
2017-05-26T21:40:40.517Z,19.73
2017-05-26T21:41:40.576Z,19.73
2017-05-26T21:42:40.185Z,19.78
2017-05-26T21:43:40.191Z,19.75
2017-05-26T21:44:40.487Z,19.73
2017-05-26T21:45:40.164Z,19.68
2017-05-26T21:46:40.463Z,19.73
2017-05-26T21:47:40.169Z,19.76
2017-05-26T21:48:40.158Z,19.63
2017-05-26T21:49:40.449Z,19.72
2017-05-26T21:50:39.809Z,19.7
2017-05-26T21:51:40.146Z,19.58
2017-05-26T21:52:40.106Z,19.68
2017-05-26T21:53:40.098Z,19.6
2017-05-26T21:54:40.086Z,19.55
2017-05-26T21:55:39.764Z,19.6
2017-05-26T21:56:40.073Z,19.65
2017-05-26T21:57:40.065Z,19.6
2017-05-26T21:58:40.369Z,19.53
2017-05-26T21:59:40.360Z,19.6
2017-05-26T22:00:39.779Z,19.54
2017-05-26T22:01:40.033Z,19.57
2017-05-26T22:02:40.042Z,19.48
2017-05-26T22:03:40.017Z,19.4
2017-05-26T22:04:40.007Z,19.43
2017-05-26T22:05:40.002Z,19.43
2017-05-26T22:06:40.310Z,19.38
2017-05-26T22:07:40.190Z,19.38
2017-05-26T22:08:39.991Z,19.36
2017-05-26T22:09:40.299Z,19.36
2017-05-26T22:10:40.266Z,19.32
2017-05-26T22:11:39.947Z,19.31
2017-05-26T22:12:40.257Z,19.38
2017-05-26T22:13:39.936Z,19.32
2017-05-26T22:14:39.923Z,19.24
2017-05-26T22:15:39.909Z,19.18
2017-05-26T22:16:39.908Z,19.25
2017-05-26T22:17:40.213Z,19.25
2017-05-26T22:18:39.886Z,19.11
2017-05-26T22:19:39.878Z,19.11
2017-05-26T22:20:39.555Z,19.1
2017-05-26T22:21:39.865Z,19.13
2017-05-26T22:22:39.852Z,19.02
2017-05-26T22:23:39.852Z,19.1
2017-05-26T22:24:39.844Z,19.05
2017-05-26T22:25:39.830Z,19.05
2017-05-26T22:26:40.133Z,19.02
2017-05-26T22:27:39.814Z,18.99
2017-05-26T22:28:39.808Z,18.97
2017-05-26T22:29:39.478Z,18.99
2017-05-26T22:30:40.232Z,18.97
2017-05-26T22:31:39.780Z,18.98
2017-05-26T22:32:40.087Z,19.01
2017-05-26T22:33:40.157Z,18.92
2017-05-26T22:34:39.757Z,18.9
2017-05-26T22:35:39.759Z,18.83
2017-05-26T22:36:39.743Z,18.84
2017-05-26T22:37:39.774Z,18.8
2017-05-26T22:38:39.724Z,18.83
2017-05-26T22:39:39.401Z,18.76
2017-05-26T22:40:40.024Z,18.74
2017-05-26T22:41:39.691Z,18.8
2017-05-26T22:42:39.999Z,18.61
2017-05-26T22:43:40.012Z,18.62
2017-05-26T22:44:39.981Z,18.67
2017-05-26T22:45:39.656Z,18.64
2017-05-26T22:46:39.966Z,18.65
2017-05-26T22:47:39.956Z,18.58
2017-05-26T22:48:39.945Z,18.52
2017-05-26T22:49:39.942Z,18.59
2017-05-26T22:50:40.173Z,18.64
2017-05-26T22:51:39.920Z,18.55
2017-05-26T22:52:39.289Z,18.61
2017-05-26T22:53:39.622Z,18.68
2017-05-26T22:54:40.047Z,18.58
2017-05-26T22:55:39.888Z,18.62
2017-05-26T22:56:39.884Z,18.61
2017-05-26T22:57:39.244Z,18.59
2017-05-26T22:58:39.884Z,18.5
2017-05-26T22:59:39.534Z,18.67
2017-05-26T23:00:39.211Z,18.67
2017-05-26T23:01:39.825Z,18.55
2017-05-26T23:02:39.823Z,18.52
2017-05-26T23:03:39.812Z,18.55
2017-05-26T23:04:39.811Z,18.54
2017-05-26T23:05:39.797Z,18.58
2017-05-26T23:06:39.473Z,18.57
2017-05-26T23:07:39.466Z,18.52
2017-05-26T23:08:39.452Z,18.47
2017-05-26T23:09:39.447Z,18.44
2017-05-26T23:10:39.118Z,18.44
2017-05-26T23:11:39.109Z,18.43
2017-05-26T23:12:39.741Z,18.4
2017-05-26T23:13:39.412Z,18.4
2017-05-26T23:14:39.448Z,18.37
2017-05-26T23:15:39.397Z,18.31
2017-05-26T23:16:39.386Z,18.36
2017-05-26T23:17:39.691Z,18.4
2017-05-26T23:18:39.363Z,18.31
2017-05-26T23:19:39.353Z,18.29
2017-05-26T23:20:39.381Z,18.37
2017-05-26T23:21:39.651Z,18.37
2017-05-26T23:22:39.641Z,18.28
2017-05-26T23:23:39.318Z,18.31
2017-05-26T23:24:39.304Z,18.27
2017-05-26T23:25:39.298Z,18.28
2017-05-26T23:26:39.600Z,18.31
2017-05-26T23:27:38.973Z,18.31
2017-05-26T23:28:39.585Z,18.22
2017-05-26T23:29:39.318Z,18.28
2017-05-26T23:30:39.573Z,18.27
2017-05-26T23:31:39.246Z,18.27
2017-05-26T23:32:39.563Z,18.27
2017-05-26T23:33:39.536Z,18.25
2017-05-26T23:34:39.578Z,18.27
2017-05-26T23:35:39.526Z,18.25
2017-05-26T23:36:39.512Z,18.28
2017-05-26T23:37:38.872Z,18.25
2017-05-26T23:38:39.181Z,18.18
2017-05-26T23:39:39.529Z,18.17
2017-05-26T23:40:38.853Z,18.22
2017-05-26T23:41:39.150Z,18.12
2017-05-26T23:42:39.141Z,18.12
2017-05-26T23:43:39.175Z,18.15
2017-05-26T23:44:39.174Z,18.12
2017-05-26T23:45:39.125Z,18.15
2017-05-26T23:46:38.788Z,18.12
2017-05-26T23:47:39.095Z,18.17
2017-05-26T23:48:39.407Z,18.17
2017-05-26T23:49:38.769Z,18.13
2017-05-26T23:50:38.756Z,18.17
2017-05-26T23:51:39.070Z,18.15
2017-05-26T23:52:39.059Z,18.19
2017-05-26T23:53:39.041Z,18.04
2017-05-26T23:54:39.342Z,18.18
2017-05-26T23:55:39.021Z,18.09
2017-05-26T23:56:39.013Z,18.12
2017-05-26T23:57:39.008Z,18.07
2017-05-26T23:58:38.995Z,17.94
2017-05-26T23:59:38.987Z,18
